Time;durP1;ratioP1;P1;durP2;ratioP2;P2;SDS_P1;SDS_P2;PMS_P1;PMS_P2;Temp;Humidity;BMP_temperature;BMP_pressure;BME280_temperature;BME280_humidity;BME280_pressure;Samples;Min_cycle;Max_cycle;Signal;HPM_P1;HPM_P2
2024/04/11 00:02:07;;;;;;;2.63;2.13;;;4.40;99.90;;;;;;5334836;26;20001;-41
2024/04/11 00:04:33;;;;;;;2.92;1.67;;;4.10;99.90;;;;;;5330627;26;20001;-39
2024/04/11 00:06:59;;;;;;;2.45;2.25;;;4.00;99.90;;;;;;5338130;26;20458;-41
2024/04/11 00:09:24;;;;;;;8.18;2.47;;;4.10;99.90;;;;;;5330593;26;20435;-39
2024/04/11 00:11:50;;;;;;;6.25;2.45;;;4.10;99.90;;;;;;5330042;26;20009;-38
2024/04/11 00:14:15;;;;;;;10.68;2.53;;;4.00;99.90;;;;;;5332622;26;20011;-41
2024/04/11 00:16:41;;;;;;;4.40;2.30;;;4.00;99.90;;;;;;5331319;26;20078;-39
2024/04/11 00:19:07;;;;;;;3.10;2.10;;;4.00;99.90;;;;;;5335361;26;20319;-40
2024/04/11 00:21:32;;;;;;;3.28;2.63;;;4.10;99.90;;;;;;5329552;26;20097;-41
2024/04/11 00:23:58;;;;;;;3.08;2.15;;;4.10;99.90;;;;;;5331298;26;20013;-40
2024/04/11 00:26:23;;;;;;;4.88;3.10;;;4.10;99.90;;;;;;5343645;26;20059;-42
2024/04/11 00:28:49;;;;;;;4.30;3.45;;;4.10;99.90;;;;;;5336144;26;20033;-35
2024/04/11 00:31:15;;;;;;;5.00;3.17;;;4.10;99.90;;;;;;5325856;26;20005;-42
2024/04/11 00:33:54;;;;;;;3.85;3.47;;;4.00;99.90;;;;;;5328131;26;20333;-39
2024/04/11 00:36:24;;;;;;;5.32;2.90;;;4.10;99.90;;;;;;5337443;26;20009;-41
2024/04/11 00:38:51;;;;;;;4.53;2.92;;;4.10;99.90;;;;;;5330094;26;20008;-36
2024/04/11 00:41:19;;;;;;;3.38;3.08;;;4.10;99.90;;;;;;5328909;26;20008;-37
2024/04/11 00:43:45;;;;;;;5.45;3.55;;;4.10;99.90;;;;;;5328956;26;20082;-42
2024/04/11 00:46:11;;;;;;;3.08;2.78;;;4.00;99.90;;;;;;5324288;26;20000;-40
2024/04/11 00:48:39;;;;;;;14.98;2.22;;;3.90;99.90;;;;;;5334779;26;20092;-42
2024/04/11 00:51:08;;;;;;;1.45;1.35;;;3.30;99.90;;;;;;5329334;26;20001;-41
2024/04/11 00:53:34;;;;;;;2.10;1.70;;;2.80;99.90;;;;;;5334251;26;19993;-39
2024/04/11 00:56:00;;;;;;;2.10;1.90;;;2.90;99.90;;;;;;5327951;26;20508;-39
2024/04/11 00:58:26;;;;;;;2.53;1.88;;;3.10;99.90;;;;;;5324936;26;20490;-38
2024/04/11 01:00:52;;;;;;;4.63;2.63;;;3.10;99.90;;;;;;5331990;26;20001;-41
2024/04/11 01:03:18;;;;;;;2.20;2.00;;;3.20;99.90;;;;;;5326496;26;20512;-38
2024/04/11 01:05:44;;;;;;;2.33;1.90;;;3.30;99.90;;;;;;5327248;26;20470;-37
2024/04/11 01:08:10;;;;;;;2.30;1.75;;;3.40;99.90;;;;;;5331298;26;20064;-33
2024/04/11 01:10:39;;;;;;;3.90;2.30;;;3.50;99.90;;;;;;5328742;26;20001;-35
2024/04/11 01:13:05;;;;;;;3.05;2.40;;;3.50;99.90;;;;;;5334530;26;19997;-32
2024/04/11 01:15:35;;;;;;;2.60;2.40;;;3.50;99.90;;;;;;5332013;26;20360;-35
2024/04/11 01:18:01;;;;;;;2.28;2.03;;;3.50;99.90;;;;;;5327909;26;20446;-33
2024/04/11 01:20:27;;;;;;;2.35;1.75;;;3.60;99.90;;;;;;5328145;26;20033;-33
2024/04/11 01:22:52;;;;;;;4.55;1.98;;;3.50;99.90;;;;;;5384545;26;20536;-37
2024/04/11 01:25:19;;;;;;;2.05;1.95;;;3.60;99.90;;;;;;5327455;26;20071;-32
2024/04/11 01:27:45;;;;;;;3.08;2.25;;;3.60;99.90;;;;;;5327648;26;20008;-33
2024/04/11 01:30:13;;;;;;;3.40;1.92;;;3.50;99.90;;;;;;5325534;26;20001;-40
2024/04/11 01:32:39;;;;;;;;;;;3.40;99.90;;;;;;5316029;26;20005;-38
2024/04/11 01:35:05;;;;;;;3.15;1.73;;;3.20;99.90;;;;;;5330728;26;19941;-42
2024/04/11 01:37:31;;;;;;;4.53;2.20;;;3.20;99.90;;;;;;5329845;26;19997;-37
2024/04/11 01:39:58;;;;;;;2.17;1.88;;;3.30;99.90;;;;;;5327136;26;20020;-42
2024/04/11 01:42:23;;;;;;;4.32;2.47;;;3.30;99.90;;;;;;5328783;26;19997;-41
2024/04/11 01:44:49;;;;;;;4.72;2.60;;;3.30;99.90;;;;;;5325978;26;20462;-36
2024/04/11 01:47:15;;;;;;;3.08;2.15;;;3.30;99.90;;;;;;5327685;26;20001;-34
2024/04/11 01:49:43;;;;;;;4.00;2.03;;;3.20;99.90;;;;;;5336701;26;20451;-34
2024/04/11 01:52:12;;;;;;;4.35;2.40;;;3.20;99.90;;;;;;5322871;26;20009;-33
2024/04/11 01:54:41;;;;;;;2.30;1.95;;;3.20;99.90;;;;;;5318129;26;20067;-32
2024/04/11 01:57:10;;;;;;;2.20;1.95;;;3.30;99.90;;;;;;5327339;26;20076;-34
2024/04/11 01:59:36;;;;;;;2.00;1.80;;;3.30;99.90;;;;;;5325466;26;20037;-35
2024/04/11 02:02:02;;;;;;;2.67;2.22;;;3.30;99.90;;;;;;5324898;26;20128;-32
2024/04/11 02:04:30;;;;;;;2.40;2.20;;;3.30;99.90;;;;;;5328187;26;20056;-32
2024/04/11 02:06:57;;;;;;;2.60;2.05;;;3.20;99.90;;;;;;5319248;26;20386;-32
2024/04/11 02:09:23;;;;;;;2.22;2.03;;;3.20;99.90;;;;;;5331800;26;20001;-33
2024/04/11 02:11:53;;;;;;;8.77;2.40;;;3.20;99.90;;;;;;5331203;26;20444;-37
2024/04/11 02:14:19;;;;;;;2.67;2.40;;;3.20;99.90;;;;;;5323072;26;20087;-32
2024/04/11 02:16:44;;;;;;;2.13;1.95;;;3.20;99.90;;;;;;5320815;26;20010;-32
2024/04/11 02:19:12;;;;;;;2.00;1.88;;;3.00;99.90;;;;;;5327348;26;20370;-37
2024/04/11 02:21:41;;;;;;;1.98;1.80;;;2.90;99.90;;;;;;5326849;26;20001;-32
2024/04/11 02:24:07;;;;;;;1.90;1.80;;;2.60;99.90;;;;;;5336556;26;20390;-33
2024/04/11 02:26:37;;;;;;;2.00;1.90;;;2.60;99.90;;;;;;5332799;26;20012;-37
2024/04/11 02:29:04;;;;;;;1.90;1.67;;;2.70;99.90;;;;;;5336423;26;20000;-35
2024/04/11 02:31:30;;;;;;;2.17;1.90;;;2.80;99.90;;;;;;5327386;26;20001;-34
2024/04/11 02:33:59;;;;;;;2.05;1.80;;;2.90;99.90;;;;;;5333578;26;20050;-33
2024/04/11 02:36:30;;;;;;;4.88;2.85;;;2.90;99.90;;;;;;5329750;26;20414;-33
2024/04/11 02:38:57;;;;;;;2.70;2.17;;;2.90;99.90;;;;;;5336602;26;20005;-33
2024/04/11 02:41:22;;;;;;;2.92;2.45;;;3.00;99.90;;;;;;5328509;26;20087;-33
2024/04/11 02:43:48;;;;;;;2.60;2.08;;;2.90;99.90;;;;;;5331702;26;20007;-38
2024/04/11 02:46:17;;;;;;;4.38;2.80;;;2.90;99.90;;;;;;5330658;26;20351;-34
2024/04/11 02:48:46;;;;;;;4.13;2.70;;;2.80;99.90;;;;;;5328875;26;19997;-32
2024/04/11 02:51:13;;;;;;;2.20;1.95;;;2.80;99.90;;;;;;5329964;26;20331;-35
2024/04/11 02:53:39;;;;;;;2.35;2.15;;;2.80;99.90;;;;;;5323822;26;20024;-37
2024/04/11 02:56:07;;;;;;;2.05;1.90;;;2.90;99.90;;;;;;5321615;26;20001;-33
2024/04/11 02:58:33;;;;;;;;;;;2.90;99.90;;;;;;5331004;26;20044;-37
2024/04/11 03:01:00;;;;;;;1.80;1.70;;;2.80;99.90;;;;;;5337779;26;20261;-35
2024/04/11 03:03:26;;;;;;;2.40;2.20;;;2.80;99.90;;;;;;5331070;26;20044;-33
2024/04/11 03:05:51;;;;;;;2.28;2.00;;;2.70;99.90;;;;;;5327761;26;20616;-36
2024/04/11 03:08:19;;;;;;;2.42;2.10;;;2.70;99.90;;;;;;5327447;26;20001;-32
2024/04/11 03:10:45;;;;;;;2.53;2.08;;;2.70;99.90;;;;;;5330125;26;20008;-33
2024/04/11 03:13:11;;;;;;;2.40;2.20;;;2.80;99.90;;;;;;5331210;26;20024;-33
2024/04/11 03:15:36;;;;;;;2.65;2.42;;;2.80;99.90;;;;;;5332650;26;20351;-33
2024/04/11 03:18:02;;;;;;;2.55;2.35;;;2.80;99.90;;;;;;5330005;26;20012;-39
2024/04/11 03:20:28;;;;;;;3.08;2.75;;;2.80;99.90;;;;;;5323976;26;20002;-33
2024/04/11 03:22:54;;;;;;;3.63;2.80;;;2.70;99.90;;;;;;5330044;26;19997;-34
2024/04/11 03:25:19;;;;;;;4.75;2.45;;;2.70;99.90;;;;;;5329084;26;20380;-36
2024/04/11 03:27:45;;;;;;;5.72;3.38;;;2.80;99.90;;;;;;5327185;26;19993;-36
2024/04/11 03:30:10;;;;;;;6.10;2.80;;;2.60;99.90;;;;;;5332341;26;20467;-33
2024/04/11 03:32:36;;;;;;;3.53;2.75;;;2.50;99.90;;;;;;5325202;26;19998;-35
2024/04/11 03:35:04;;;;;;;2.45;2.17;;;2.50;99.90;;;;;;5330540;26;20005;-35
2024/04/11 03:37:29;;;;;;;2.33;2.08;;;2.40;99.90;;;;;;5332483;26;20005;-34
2024/04/11 03:39:57;;;;;;;1.90;1.80;;;2.20;99.90;;;;;;5333776;26;19997;-42
2024/04/11 03:42:23;;;;;;;2.40;2.20;;;2.10;99.90;;;;;;5328776;26;20434;-42
2024/04/11 03:44:49;;;;;;;2.50;2.00;;;2.10;99.90;;;;;;5333046;26;20048;-36
2024/04/11 03:47:15;;;;;;;2.95;1.98;;;2.20;99.90;;;;;;5335312;26;20029;-41
2024/04/11 03:49:41;;;;;;;2.50;2.10;;;2.30;99.90;;;;;;5329701;26;20008;-39
2024/04/11 03:52:06;;;;;;;4.03;2.00;;;2.40;99.90;;;;;;5332797;26;20012;-42
2024/04/11 03:54:33;;;;;;;3.35;2.53;;;2.30;99.90;;;;;;5321466;26;20008;-36
2024/04/11 03:56:59;;;;;;;2.88;2.25;;;2.30;99.90;;;;;;5335797;26;20004;-41
2024/04/11 03:59:26;;;;;;;2.15;2.03;;;2.40;99.90;;;;;;5334665;26;19997;-41
2024/04/11 04:01:51;;;;;;;2.28;2.08;;;2.40;99.90;;;;;;5326596;26;20048;-42
2024/04/11 04:04:19;;;;;;;2.35;2.15;;;2.40;99.90;;;;;;5344874;26;20001;-42
2024/04/11 04:06:46;;;;;;;4.15;2.25;;;2.40;99.90;;;;;;5356536;26;20012;-38
2024/04/11 04:09:12;;;;;;;3.35;2.13;;;2.40;99.90;;;;;;5332591;26;19997;-41
2024/04/11 04:11:38;;;;;;;3.67;2.45;;;2.40;99.90;;;;;;5330579;26;20000;-40
2024/04/11 04:14:08;;;;;;;4.47;2.72;;;2.50;99.90;;;;;;5331583;26;20131;-41
2024/04/11 04:16:35;;;;;;;3.53;2.45;;;2.50;99.90;;;;;;5326185;26;20005;-39
2024/04/11 04:19:02;;;;;;;2.95;2.10;;;2.40;99.90;;;;;;5328865;26;20099;-40
2024/04/11 04:21:28;;;;;;;4.30;2.50;;;2.40;99.90;;;;;;5331542;26;20842;-39
2024/04/11 04:24:02;;;;;;;2.92;2.40;;;2.40;99.90;;;;;;5323800;26;20030;-39
2024/04/11 04:26:30;;;;;;;3.80;2.30;;;2.40;99.90;;;;;;5321304;26;20579;-42
2024/04/11 04:28:57;;;;;;;3.38;2.45;;;2.30;99.90;;;;;;5325286;26;20006;-41
2024/04/11 04:31:25;;;;;;;3.05;2.40;;;2.30;99.90;;;;;;5327701;26;19997;-42
2024/04/11 04:33:56;;;;;;;2.28;1.80;;;2.30;99.90;;;;;;5328986;26;20949;-37
2024/04/11 04:36:25;;;;;;;4.15;2.10;;;2.40;99.90;;;;;;5323759;26;20470;-40
2024/04/11 04:38:52;;;;;;;2.38;2.17;;;2.30;99.90;;;;;;5330724;26;20860;-39
2024/04/11 04:41:21;;;;;;;2.20;2.00;;;2.30;99.90;;;;;;5326533;26;20009;-42
2024/04/11 04:43:53;;;;;;;2.47;1.80;;;2.30;99.90;;;;;;5330208;26;19997;-39
2024/04/11 04:46:20;;;;;;;2.30;2.10;;;2.30;99.90;;;;;;5331800;26;20069;-42
2024/04/11 04:48:46;;;;;;;2.47;2.28;;;2.30;99.90;;;;;;5326807;26;20001;-35
2024/04/11 04:51:12;;;;;;;2.53;2.17;;;2.30;99.90;;;;;;5329548;26;20074;-34
2024/04/11 04:53:38;;;;;;;2.40;2.20;;;2.30;99.90;;;;;;5332351;26;20016;-36
2024/04/11 04:56:05;;;;;;;3.90;2.50;;;2.30;99.90;;;;;;5328205;26;20009;-35
2024/04/11 04:58:30;;;;;;;8.50;2.60;;;2.30;99.90;;;;;;5384520;26;20006;-42
2024/04/11 05:00:57;;;;;;;4.43;2.33;;;2.30;99.90;;;;;;5329039;26;20000;-40
2024/04/11 05:03:24;;;;;;;4.75;2.08;;;2.40;99.90;;;;;;5377596;26;20004;-39
2024/04/11 05:05:50;;;;;;;3.58;3.05;;;2.40;99.90;;;;;;5369912;26;20450;-37
2024/04/11 05:08:16;;;;;;;7.13;3.83;;;2.40;99.90;;;;;;5363964;26;20007;-41
2024/04/11 05:10:42;;;;;;;6.68;3.65;;;2.40;99.90;;;;;;5364465;26;20735;-41
2024/04/11 05:13:10;;;;;;;3.90;3.50;;;2.50;99.90;;;;;;5378387;26;19996;-40
2024/04/11 05:15:36;;;;;;;4.68;3.42;;;2.50;99.90;;;;;;5369966;26;20025;-38
2024/04/11 05:18:02;;;;;;;3.10;2.20;;;2.50;99.90;;;;;;5367239;26;20000;-40
2024/04/11 05:20:28;;;;;;;4.25;2.50;;;2.50;99.90;;;;;;5370909;26;20044;-42
2024/04/11 05:22:56;;;;;;;2.10;1.98;;;2.40;99.90;;;;;;5361309;26;20000;-41
2024/04/11 05:25:22;;;;;;;2.10;2.00;;;2.40;99.90;;;;;;5365442;26;20004;-42
2024/04/11 05:27:48;;;;;;;3.47;2.30;;;2.30;99.90;;;;;;5366682;26;20349;-42
2024/04/11 05:30:14;;;;;;;4.05;2.42;;;2.40;99.90;;;;;;5366507;26;20025;-42
2024/04/11 05:32:44;;;;;;;3.00;2.70;;;2.40;99.90;;;;;;5354018;26;20031;-42
2024/04/11 05:35:09;;;;;;;3.10;2.00;;;2.30;99.90;;;;;;5367994;26;20011;-39
2024/04/11 05:37:45;;;;;;;2.45;2.25;;;2.30;99.90;;;;;;5368865;26;20062;-41
2024/04/11 05:40:12;;;;;;;2.28;2.08;;;2.30;99.90;;;;;;5373757;26;20004;-38
2024/04/11 05:42:48;;;;;;;2.65;2.15;;;2.20;99.90;;;;;;5364200;26;20008;-42
2024/04/11 05:45:19;;;;;;;3.00;2.47;;;2.20;99.90;;;;;;5374593;26;20003;-41
2024/04/11 05:47:48;;;;;;;2.70;2.30;;;2.20;99.90;;;;;;5379632;26;20451;-41
2024/04/11 05:50:15;;;;;;;3.55;2.78;;;2.20;99.90;;;;;;5378808;26;20670;-42
2024/04/11 05:52:47;;;;;;;2.97;2.08;;;2.20;99.90;;;;;;5385121;26;20015;-41
2024/04/11 05:55:14;;;;;;;1.95;1.85;;;2.20;99.90;;;;;;5381988;26;19995;-41
2024/04/11 05:57:44;;;;;;;5.57;2.53;;;2.20;99.90;;;;;;5384857;26;20395;-40
2024/04/11 06:00:11;;;;;;;2.40;2.20;;;2.30;99.90;;;;;;5379081;26;20036;-40
2024/04/11 06:02:41;;;;;;;10.90;3.60;;;2.30;99.90;;;;;;5388150;26;20017;-40
2024/04/11 06:05:07;;;;;;;3.45;2.78;;;2.50;99.90;;;;;;5388025;26;19996;-39
2024/04/11 06:07:35;;;;;;;4.95;2.65;;;2.60;99.90;;;;;;5381989;26;20329;-42
2024/04/11 06:10:04;;;;;;;3.37;2.77;;;2.70;99.90;;;;;;5389552;26;19999;-32
2024/04/11 06:12:33;;;;;;;6.15;3.00;;;2.80;99.90;;;;;;5377977;26;20368;-33
2024/04/11 06:14:59;;;;;;;6.18;3.75;;;3.00;99.90;;;;;;5379576;26;20003;-33
2024/04/11 06:17:27;;;;;;;6.07;2.97;;;3.10;99.90;;;;;;5376331;26;20457;-33
2024/04/11 06:19:55;;;;;;;4.40;3.65;;;3.30;99.90;;;;;;5380564;26;20097;-33
2024/04/11 06:22:21;;;;;;;4.85;2.88;;;3.40;99.90;;;;;;5377044;26;20012;-37
2024/04/11 06:24:47;;;;;;;5.80;3.00;;;3.50;99.90;;;;;;5378351;26;20008;-34
2024/04/11 06:27:13;;;;;;;3.95;3.45;;;3.60;99.90;;;;;;5370640;26;20016;-34
2024/04/11 06:29:39;;;;;;;6.05;2.50;;;3.80;99.90;;;;;;5381341;26;20453;-34
2024/04/11 06:32:06;;;;;;;3.70;2.72;;;3.80;99.90;;;;;;5383699;26;20811;-32
2024/04/11 06:34:33;;;;;;;3.00;2.80;;;3.90;99.90;;;;;;5375394;26;20433;-38
2024/04/11 06:36:59;;;;;;;3.38;3.00;;;4.00;99.90;;;;;;5387773;26;20053;-33
2024/04/11 06:39:25;;;;;;;4.95;2.78;;;4.00;99.90;;;;;;5381188;26;19999;-37
2024/04/11 06:41:51;;;;;;;6.20;3.88;;;4.20;99.90;;;;;;5387818;26;19999;-33
2024/04/11 06:44:17;;;;;;;5.55;3.35;;;4.30;99.90;;;;;;5376646;26;20000;-34
2024/04/11 06:46:45;;;;;;;4.32;3.47;;;4.50;99.90;;;;;;5374101;26;20000;-33
2024/04/11 06:49:12;;;;;;;5.82;4.13;;;4.70;99.90;;;;;;5375115;26;20019;-35
2024/04/11 06:51:39;;;;;;;4.30;3.78;;;4.90;99.90;;;;;;5380151;26;20004;-34
2024/04/11 06:54:05;;;;;;;4.05;3.60;;;5.10;99.90;;;;;;5377303;26;19996;-33
2024/04/11 06:56:31;;;;;;;6.35;4.45;;;5.30;99.90;;;;;;5374067;26;20007;-35
2024/04/11 06:58:57;;;;;;;8.20;5.03;;;5.40;99.90;;;;;;5382171;26;20003;-33
2024/04/11 07:01:23;;;;;;;7.13;4.63;;;5.60;99.90;;;;;;5364415;26;20359;-32
2024/04/11 07:03:53;;;;;;;7.07;4.47;;;5.70;99.90;;;;;;5335563;26;20043;-37
2024/04/11 07:06:22;;;;;;;6.68;4.68;;;5.80;99.90;;;;;;5333454;26;20000;-33
2024/04/11 07:08:54;;;;;;;6.15;4.63;;;6.00;99.90;;;;;;5336161;26;20009;-33
2024/04/11 07:11:27;;;;;;;5.00;4.28;;;6.00;99.90;;;;;;5337473;26;20449;-33
2024/04/11 07:13:54;;;;;;;6.07;4.57;;;6.20;99.90;;;;;;5329574;26;20008;-36
2024/04/11 07:16:32;;;;;;;7.43;4.55;;;6.50;99.90;;;;;;5333041;26;20370;-36
2024/04/11 07:18:58;;;;;;;5.88;4.40;;;6.60;99.90;;;;;;5336241;26;20001;-41
2024/04/11 07:21:26;;;;;;;8.57;5.00;;;6.80;99.90;;;;;;5331093;26;20001;-38
2024/04/11 07:23:57;;;;;;;10.55;5.53;;;7.00;99.90;;;;;;5334723;26;20009;-37
2024/04/11 07:26:29;;;;;;;7.28;5.22;;;7.20;99.90;;;;;;5323837;26;20005;-41
2024/04/11 07:28:55;;;;;;;11.30;5.07;;;7.30;99.90;;;;;;5333229;26;20397;-40
2024/04/11 07:31:21;;;;;;;9.80;5.45;;;7.40;99.90;;;;;;5352736;26;19997;-39
2024/04/11 07:33:48;;;;;;;10.60;5.68;;;7.50;99.90;;;;;;5373800;26;20342;-42
2024/04/11 07:36:16;;;;;;;15.38;6.13;;;7.60;99.90;;;;;;5370636;26;19996;-39
2024/04/11 07:38:43;;;;;;;8.68;4.65;;;7.70;99.90;;;;;;5376915;26;20032;-40
2024/04/11 07:41:16;;;;;;;8.95;5.55;;;8.00;99.90;;;;;;5372302;26;20067;-42
2024/04/11 07:43:55;;;;;;;7.70;5.40;;;8.10;99.90;;;;;;5365291;26;20000;-43
2024/04/11 07:46:28;;;;;;;10.35;4.78;;;8.30;99.90;;;;;;5378532;26;20050;-42
2024/04/11 07:48:55;;;;;;;7.95;5.60;;;8.40;99.90;;;;;;5373888;26;20761;-42
2024/04/11 07:51:21;;;;;;;8.68;5.28;;;8.60;99.90;;;;;;5383837;26;20000;-43
2024/04/11 07:53:48;;;;;;;8.77;5.30;;;8.80;99.90;;;;;;5383514;26;20345;-42
2024/04/11 07:56:25;;;;;;;9.93;5.30;;;9.00;99.90;;;;;;5377969;26;20322;-40
2024/04/11 07:58:55;;;;;;;7.40;4.97;;;9.10;99.90;;;;;;5372758;26;20337;-42
2024/04/11 08:01:30;;;;;;;11.70;6.78;;;9.20;99.90;;;;;;5361807;26;20330;-41
2024/04/11 08:04:02;;;;;;;11.05;5.13;;;9.40;99.90;;;;;;5330016;26;19998;-42
2024/04/11 08:06:29;;;;;;;8.95;5.35;;;9.50;99.90;;;;;;5331559;26;20072;-39
2024/04/11 08:08:56;;;;;;;8.23;5.15;;;9.70;99.90;;;;;;5332108;26;20013;-39
2024/04/11 08:11:22;;;;;;;6.70;4.65;;;9.90;99.90;;;;;;5326400;26;20011;-40
2024/04/11 08:13:48;;;;;;;7.53;4.38;;;10.10;99.90;;;;;;5320900;26;20044;-40
2024/04/11 08:16:14;;;;;;;7.85;4.95;;;10.30;99.90;;;;;;5335037;26;20008;-41
2024/04/11 08:18:39;;;;;;;7.45;4.18;;;10.50;99.90;;;;;;5338674;26;20379;-38
2024/04/11 08:21:08;;;;;;;8.40;4.93;;;10.70;99.90;;;;;;5330734;26;20095;-41
2024/04/11 08:23:39;;;;;;;8.70;4.50;;;10.80;99.90;;;;;;5325717;26;20455;-38
2024/04/11 08:26:05;;;;;;;10.35;4.75;;;11.00;99.90;;;;;;5328179;26;20547;-39
2024/04/11 08:28:34;;;;;;;8.07;4.82;;;11.10;99.90;;;;;;5337584;26;20009;-32
2024/04/11 08:31:00;;;;;;;7.22;4.68;;;11.20;99.90;;;;;;5329139;26;20017;-35
2024/04/11 08:33:26;;;;;;;7.18;4.68;;;11.30;99.90;;;;;;5332597;26;20014;-36
2024/04/11 08:35:54;;;;;;;7.32;4.90;;;11.40;99.90;;;;;;5331745;26;20012;-32
2024/04/11 08:38:23;;;;;;;10.82;5.15;;;11.40;99.90;;;;;;5327339;26;20484;-33
2024/04/11 08:40:49;;;;;;;7.47;4.70;;;11.50;99.90;;;;;;5328331;26;19997;-37
2024/04/11 08:43:20;;;;;;;6.88;4.70;;;11.50;99.90;;;;;;5326879;26;20001;-31
2024/04/11 08:45:46;;;;;;;10.30;5.13;;;11.70;99.90;;;;;;5329878;26;20013;-33
2024/04/11 08:48:12;;;;;;;7.57;4.30;;;11.70;99.90;;;;;;5332974;26;20411;-33
2024/04/11 08:50:45;;;;;;;6.20;4.65;;;11.70;99.90;;;;;;5337550;26;20007;-33
2024/04/11 08:53:16;;;;;;;9.15;5.28;;;11.80;99.90;;;;;;5338569;26;20000;-32
2024/04/11 08:55:42;;;;;;;6.45;4.70;;;12.00;99.90;;;;;;5329429;26;20016;-37
2024/04/11 08:58:08;;;;;;;8.20;4.65;;;12.10;99.90;;;;;;5331014;26;20497;-32
2024/04/11 09:00:40;;;;;;;5.18;4.47;;;11.80;98.90;;;;;;5318041;26;20707;-32
2024/04/11 09:03:10;;;;;;;6.60;4.40;;;12.00;99.90;;;;;;5331557;26;21352;-33
2024/04/11 09:05:36;;;;;;;7.53;4.68;;;12.10;99.90;;;;;;5321861;26;20338;-32
2024/04/11 09:08:01;;;;;;;11.65;4.72;;;12.20;99.90;;;;;;5325468;26;19997;-31
2024/04/11 09:10:30;;;;;;;10.43;4.88;;;12.20;99.90;;;;;;5336202;26;20079;-32
2024/04/11 09:12:59;;;;;;;7.65;4.68;;;12.30;99.90;;;;;;5329662;26;20033;-32
2024/04/11 09:15:25;;;;;;;8.57;4.93;;;12.40;99.90;;;;;;5327742;26;20012;-31
2024/04/11 09:17:55;;;;;;;7.68;4.90;;;12.50;99.90;;;;;;5323679;26;20017;-34
2024/04/11 09:20:24;;;;;;;6.68;4.03;;;12.30;99.90;;;;;;5323629;26;20079;-31
2024/04/11 09:22:59;;;;;;;8.02;4.32;;;12.10;99.90;;;;;;5328407;26;19998;-35
2024/04/11 09:25:30;;;;;;;9.32;4.72;;;11.80;99.90;;;;;;5335030;26;20112;-32
2024/04/11 09:28:00;;;;;;;9.38;4.93;;;12.20;99.90;;;;;;5336192;26;20405;-38
2024/04/11 09:30:29;;;;;;;10.40;4.82;;;12.50;99.90;;;;;;5335676;26;20315;-34
2024/04/11 09:33:10;;;;;;;7.22;4.82;;;12.70;99.90;;;;;;5334228;26;20012;-33
2024/04/11 09:35:40;;;;;;;6.18;4.78;;;13.00;99.90;;;;;;5333807;26;20015;-33
2024/04/11 09:38:12;;;;;;;7.20;5.07;;;12.80;99.90;;;;;;5335895;26;20327;-41
2024/04/11 09:40:50;;;;;;;7.38;4.03;;;12.90;99.90;;;;;;5339285;26;20521;-33
2024/04/11 09:43:17;;;;;;;7.57;4.43;;;12.90;99.90;;;;;;5336198;26;20040;-32
2024/04/11 09:45:50;;;;;;;5.72;3.78;;;12.70;99.90;;;;;;5332666;26;20015;-34
2024/04/11 09:48:21;;;;;;;5.28;4.10;;;12.70;99.90;;;;;;5333284;26;20013;-32
2024/04/11 09:50:48;;;;;;;6.60;4.43;;;12.80;99.90;;;;;;5333723;26;20077;-38
2024/04/11 09:53:26;;;;;;;6.90;5.00;;;12.90;99.20;;;;;;5329926;26;20052;-33
2024/04/11 09:55:53;;;;;;;11.15;4.78;;;12.90;99.90;;;;;;5332204;26;20366;-33
2024/04/11 09:58:20;;;;;;;5.80;4.30;;;12.90;99.90;;;;;;5333944;26;20024;-32
2024/04/11 10:00:48;;;;;;;5.97;3.95;;;13.10;99.90;;;;;;5333388;26;20017;-33
2024/04/11 10:03:19;;;;;;;6.43;3.60;;;13.40;99.90;;;;;;5335681;26;20001;-34
2024/04/11 10:05:51;;;;;;;4.25;3.30;;;13.80;99.90;;;;;;5330506;26;20078;-34
2024/04/11 10:08:33;;;;;;;4.45;3.58;;;13.70;98.00;;;;;;5330252;26;20497;-35
2024/04/11 10:11:08;;;;;;;7.53;3.90;;;13.50;99.90;;;;;;5330097;26;20924;-35
2024/04/11 10:13:40;;;;;;;4.60;3.45;;;13.60;99.90;;;;;;5331942;26;20016;-35
2024/04/11 10:16:25;;;;;;;6.50;3.90;;;13.80;99.90;;;;;;5326432;26;19997;-33
2024/04/11 10:19:05;;;;;;;4.78;3.72;;;13.70;94.00;;;;;;5327360;26;20037;-35
2024/04/11 10:21:32;;;;;;;5.75;3.95;;;13.70;99.60;;;;;;5331379;26;19997;-38
2024/04/11 10:24:13;;;;;;;5.32;3.92;;;13.80;99.90;;;;;;5332269;26;20001;-33
2024/04/11 10:26:42;;;;;;;6.78;4.20;;;13.60;96.40;;;;;;5338064;26;20021;-33
2024/04/11 10:29:18;;;;;;;6.30;3.55;;;13.30;99.40;;;;;;5336676;26;20039;-33
2024/04/11 10:31:44;;;;;;;5.72;3.92;;;13.40;99.90;;;;;;5329791;26;20081;-33
2024/04/11 10:34:13;;;;;;;5.80;3.38;;;13.80;99.90;;;;;;5330435;26;19997;-33
2024/04/11 10:36:42;;;;;;;4.32;3.30;;;13.90;91.70;;;;;;5335227;26;20816;-34
2024/04/11 10:39:09;;;;;;;9.32;3.85;;;13.70;93.50;;;;;;5318710;26;20005;-33
2024/04/11 10:41:37;;;;;;;5.90;3.13;;;13.60;97.50;;;;;;5331495;26;20004;-33
2024/04/11 10:44:05;;;;;;;5.50;3.50;;;13.50;95.20;;;;;;5334968;26;20470;-32
2024/04/11 10:46:31;;;;;;;7.53;3.67;;;13.50;97.70;;;;;;5332353;26;20078;-37
2024/04/11 10:49:15;;;;;;;6.18;3.72;;;13.40;87.70;;;;;;5330958;26;20078;-33
2024/04/11 10:51:46;;;;;;;4.40;3.55;;;13.50;92.80;;;;;;5337028;26;20405;-33
2024/04/11 10:54:13;;;;;;;8.02;3.88;;;13.60;97.70;;;;;;5339313;26;20499;-33
2024/04/11 10:56:44;;;;;;;4.72;3.78;;;13.50;99.50;;;;;;5326241;26;20020;-33
2024/04/11 10:59:17;;;;;;;4.63;3.50;;;13.40;94.90;;;;;;5315817;26;20001;-32
2024/04/11 11:02:00;;;;;;;5.28;3.20;;;13.30;92.10;;;;;;5332647;26;20127;-32
2024/04/11 11:04:29;;;;;;;6.53;3.85;;;13.40;91.50;;;;;;5330933;26;20008;-36
2024/04/11 11:06:59;;;;;;;5.80;3.88;;;13.50;93.70;;;;;;5334385;26;20008;-35
2024/04/11 11:09:27;;;;;;;8.07;3.75;;;13.70;95.00;;;;;;5332901;26;20104;-36
2024/04/11 11:11:59;;;;;;;4.55;3.70;;;14.10;99.90;;;;;;5325955;26;20009;-35
2024/04/11 11:14:25;;;;;;;4.60;3.95;;;14.30;94.70;;;;;;5338780;26;20450;-36
2024/04/11 11:16:52;;;;;;;6.90;3.83;;;14.10;91.20;;;;;;5332433;26;20079;-34
2024/04/11 11:19:18;;;;;;;5.38;3.83;;;13.80;90.10;;;;;;5330672;26;20008;-33
2024/04/11 11:21:51;;;;;;;5.72;3.95;;;13.70;92.20;;;;;;5329398;26;20037;-34
2024/04/11 11:24:24;;;;;;;5.05;3.65;;;13.80;92.40;;;;;;5337943;26;20000;-37
2024/04/11 11:26:58;;;;;;;5.65;4.20;;;13.90;92.90;;;;;;5329716;26;20001;-40
2024/04/11 11:29:26;;;;;;;5.53;4.22;;;13.90;92.60;;;;;;5341947;26;20001;-32
2024/04/11 11:32:02;;;;;;;4.63;4.20;;;13.90;99.60;;;;;;5328889;26;21600;-34
2024/04/11 11:34:35;;;;;;;5.78;3.90;;;14.00;94.20;;;;;;5333221;26;20447;-35
2024/04/11 11:37:01;;;;;;;4.60;3.80;;;14.10;95.20;;;;;;5334668;26;20001;-34
2024/04/11 11:39:27;;;;;;;4.30;3.85;;;14.00;95.60;;;;;;5334116;26;20001;-35
2024/04/11 11:42:28;;;;;;;4.85;3.10;;;14.00;84.80;;;;;;5335276;26;20012;-35
2024/04/11 11:47:36;;;;;;;4.75;3.70;;;14.60;84.50;;;;;;5337535;26;20032;-33
2024/04/11 11:50:07;;;;;;;7.47;4.00;;;14.80;92.20;;;;;;5333315;26;19997;-32
2024/04/11 11:52:43;;;;;;;4.22;3.58;;;14.70;94.70;;;;;;5332012;26;20456;-36
2024/04/11 11:55:09;;;;;;;4.88;3.70;;;14.70;93.40;;;;;;5334207;26;20585;-36
2024/04/11 11:57:41;;;;;;;4.65;3.40;;;14.60;86.70;;;;;;5331612;26;20015;-33
2024/04/11 12:00:21;;;;;;;4.93;4.00;;;14.70;76.40;;;;;;5329441;26;20009;-34
2024/04/11 12:02:51;;;;;;;7.05;3.72;;;14.50;91.40;;;;;;5368146;26;20527;-33
2024/04/11 12:05:23;;;;;;;9.23;4.18;;;14.40;84.60;;;;;;5367002;26;20478;-32
2024/04/11 12:07:58;;;;;;;5.45;3.63;;;14.40;84.60;;;;;;5363600;26;20039;-34
2024/04/11 12:13:18;;;;;;;7.40;4.40;;;14.40;76.10;;;;;;5369321;26;20349;-32
2024/04/11 12:15:51;;;;;;;5.82;4.40;;;14.30;87.40;;;;;;5376697;26;19992;-32
2024/04/11 12:18:22;;;;;;;5.53;4.38;;;14.10;91.80;;;;;;5372135;26;20019;-33
2024/04/11 12:20:52;;;;;;;6.68;4.35;;;14.30;90.10;;;;;;5373660;26;20449;-39
2024/04/11 12:23:21;;;;;;;5.03;3.70;;;14.70;88.10;;;;;;5383054;26;20077;-34
2024/04/11 12:25:47;;;;;;;7.47;3.80;;;14.90;88.20;;;;;;5361080;26;21173;-32
2024/04/11 12:28:12;;;;;;;5.65;4.13;;;15.30;77.10;;;;;;5364055;26;20019;-34
2024/04/11 12:30:38;;;;;;;5.57;3.75;;;15.70;84.60;;;;;;5367122;26;20238;-33
2024/04/11 12:33:08;;;;;;;5.85;3.78;;;16.00;74.50;;;;;;5334598;26;20040;-36
2024/04/11 12:35:54;;;;;;;6.90;4.70;;;16.00;74.90;;;;;;5327230;26;20012;-34
2024/04/11 12:38:20;;;;;;;6.05;4.32;;;15.50;82.30;;;;;;5332832;26;20120;-33
2024/04/11 12:40:48;;;;;;;5.70;4.75;;;15.40;83.10;;;;;;5327624;26;20013;-33
2024/04/11 12:43:18;;;;;;;5.80;4.53;;;15.30;86.20;;;;;;5334429;26;20569;-32
2024/04/11 12:45:53;;;;;;;6.25;3.95;;;15.10;79.60;;;;;;5332473;26;19996;-34
2024/04/11 12:48:20;;;;;;;5.03;4.05;;;15.20;81.20;;;;;;5332101;26;20000;-32
2024/04/11 12:50:50;;;;;;;5.97;4.15;;;15.40;82.40;;;;;;5333872;26;20005;-32
2024/04/11 12:53:21;;;;;;;4.30;3.63;;;15.10;71.80;;;;;;5329738;26;20017;-35
2024/04/11 12:55:52;;;;;;;6.00;4.13;;;15.20;71.30;;;;;;5337823;26;19993;-37
2024/04/11 12:58:26;;;;;;;4.25;3.85;;;15.30;73.60;;;;;;5325529;26;20012;-34
2024/04/11 13:01:02;;;;;;;7.55;4.82;;;15.20;74.50;;;;;;5334739;26;20111;-32
2024/04/11 13:03:52;;;;;;;6.68;4.25;;;15.00;77.40;;;;;;5340366;26;20023;-33
2024/04/11 13:06:29;;;;;;;5.72;4.38;;;15.10;70.50;;;;;;5338082;26;20008;-32